Time;durP1;ratioP1;P1;durP2;ratioP2;P2;SDS_P1;SDS_P2;PMS_P1;PMS_P2;Temp;Humidity;BMP_temperature;BMP_pressure;BME280_temperature;BME280_humidity;BME280_pressure;Samples;Min_cycle;Max_cycle;Signal;HPM_P1;HPM_P2
2021/05/28 00:02:05;;;;;;;0.57;0.50;;;23.90;40.60;;;;;;5069646;28;20055;-60
2021/05/28 00:04:32;;;;;;;0.55;0.20;;;23.90;40.60;;;;;;5069209;28;20153;-60
2021/05/28 00:07:00;;;;;;;2.03;0.20;;;23.90;40.60;;;;;;5069681;28;20098;-60
2021/05/28 00:09:27;;;;;;;0.22;0.15;;;23.90;40.60;;;;;;5069245;28;20481;-60
2021/05/28 00:11:54;;;;;;;0.10;0.10;;;23.90;40.70;;;;;;5069430;28;20385;-60
2021/05/28 00:14:22;;;;;;;0.43;0.20;;;23.90;40.70;;;;;;5068325;28;20045;-60
2021/05/28 00:16:49;;;;;;;0.30;0.30;;;23.90;40.70;;;;;;5069118;28;20139;-60
2021/05/28 00:19:16;;;;;;;0.40;0.20;;;23.90;40.70;;;;;;5068889;28;20040;-60
2021/05/28 00:21:44;;;;;;;0.10;0.10;;;23.90;40.70;;;;;;5068952;28;20052;-60
2021/05/28 00:24:11;;;;;;;0.10;0.10;;;23.90;40.70;;;;;;5068953;28;21043;-60
2021/05/28 00:26:38;;;;;;;0.30;0.30;;;23.90;40.70;;;;;;5068938;28;20132;-60
2021/05/28 00:29:05;;;;;;;0.20;0.20;;;23.90;40.70;;;;;;5068780;28;20054;-60
2021/05/28 00:31:32;;;;;;;0.50;0.50;;;23.90;40.70;;;;;;5068923;28;20144;-60
2021/05/28 00:34:00;;;;;;;0.20;0.20;;;23.90;40.70;;;;;;5068723;28;20044;-60
2021/05/28 00:36:27;;;;;;;0.00;0.00;;;23.80;40.70;;;;;;5068860;28;20490;-60
2021/05/28 00:38:54;;;;;;;0.20;0.10;;;23.90;40.80;;;;;;5069234;28;20135;-60
2021/05/28 00:41:21;;;;;;;0.22;0.10;;;23.90;40.80;;;;;;5068460;28;20059;-60
2021/05/28 00:43:48;;;;;;;0.15;0.15;;;23.90;40.80;;;;;;5068617;28;20041;-61
2021/05/28 00:46:15;;;;;;;0.20;0.20;;;23.90;40.90;;;;;;5068990;28;20079;-60
2021/05/28 00:48:43;;;;;;;0.20;0.20;;;23.80;41.40;;;;;;5068503;28;20131;-60
2021/05/28 00:51:10;;;;;;;0.20;0.20;;;23.80;40.90;;;;;;5068466;28;20051;-60
2021/05/28 00:53:37;;;;;;;0.40;0.20;;;23.80;41.50;;;;;;5068349;28;20055;-60
2021/05/28 00:56:05;;;;;;;0.08;0.08;;;23.80;40.90;;;;;;5068174;28;20528;-60
2021/05/28 00:58:33;;;;;;;0.15;0.10;;;23.80;40.90;;;;;;5068641;28;20087;-60
2021/05/28 01:01:00;;;;;;;0.57;0.57;;;23.80;40.90;;;;;;5067933;28;20076;-60
2021/05/28 01:03:28;;;;;;;1.48;0.32;;;23.80;40.90;;;;;;5068187;28;20053;-60
2021/05/28 01:05:55;;;;;;;1.73;0.20;;;23.80;41.00;;;;;;5067738;28;20047;-62
2021/05/28 01:08:22;;;;;;;3.72;0.35;;;23.80;40.90;;;;;;5068014;28;20105;-60
2021/05/28 01:10:50;;;;;;;1.23;0.40;;;23.80;41.00;;;;;;5067790;28;20131;-60
2021/05/28 01:13:17;;;;;;;0.22;0.13;;;23.80;41.00;;;;;;5067536;28;20554;-60
2021/05/28 01:15:44;;;;;;;0.10;0.10;;;23.80;41.00;;;;;;5067257;28;20127;-60
2021/05/28 01:18:11;;;;;;;0.10;0.10;;;23.80;41.00;;;;;;5067863;28;20108;-60
2021/05/28 01:20:38;;;;;;;0.30;0.10;;;23.80;41.00;;;;;;5067533;28;20044;-60
2021/05/28 01:23:06;;;;;;;0.25;0.15;;;23.80;41.00;;;;;;5067800;28;20083;-60
2021/05/28 01:25:33;;;;;;;0.25;0.10;;;23.80;41.00;;;;;;5067304;28;20119;-60
2021/05/28 01:28:01;;;;;;;0.10;0.10;;;23.80;41.10;;;;;;5068202;28;20493;-60
2021/05/28 01:30:28;;;;;;;0.75;0.20;;;23.80;41.10;;;;;;5067175;28;20150;-60
2021/05/28 01:32:55;;;;;;;0.10;0.10;;;23.80;41.10;;;;;;5068124;28;20052;-60
2021/05/28 01:35:23;;;;;;;0.10;0.10;;;23.70;41.00;;;;;;5067806;28;20071;-60
2021/05/28 01:37:50;;;;;;;1.40;0.32;;;23.70;41.20;;;;;;5067173;28;20497;-60
2021/05/28 01:40:19;;;;;;;0.30;0.28;;;23.70;41.10;;;;;;5067515;28;20147;-60
2021/05/28 01:42:47;;;;;;;0.10;0.10;;;23.70;41.20;;;;;;5071751;28;20485;-60
2021/05/28 01:45:15;;;;;;;0.10;0.10;;;23.70;41.20;;;;;;5087584;28;20118;-60
2021/05/28 01:47:43;;;;;;;0.30;0.30;;;23.70;41.10;;;;;;5070074;28;20066;-60
2021/05/28 01:50:11;;;;;;;0.30;0.30;;;23.70;41.10;;;;;;5074436;28;20060;-61
2021/05/28 01:52:38;;;;;;;0.20;0.20;;;23.70;41.20;;;;;;5087660;28;20052;-60
2021/05/28 01:55:09;;;;;;;0.52;0.38;;;23.70;41.20;;;;;;5087064;28;20382;-61
2021/05/28 01:57:37;;;;;;;0.20;0.20;;;23.70;41.20;;;;;;5086593;28;20048;-60
2021/05/28 02:00:10;;;;;;;1.73;0.20;;;23.70;41.20;;;;;;5067381;28;20497;-63
2021/05/28 02:02:38;;;;;;;1.13;0.22;;;23.70;41.20;;;;;;5084574;28;20048;-60
2021/05/28 02:05:08;;;;;;;0.50;0.28;;;23.70;41.20;;;;;;5087067;28;20500;-60
2021/05/28 02:07:37;;;;;;;0.30;0.30;;;23.60;41.20;;;;;;5087458;28;20524;-60
2021/05/28 02:10:05;;;;;;;0.47;0.30;;;23.60;41.20;;;;;;5087251;28;20044;-60
2021/05/28 02:12:33;;;;;;;0.75;0.20;;;23.70;41.30;;;;;;5071984;28;20048;-60
2021/05/28 02:15:01;;;;;;;0.17;0.17;;;23.70;41.30;;;;;;5066071;28;20135;-60
2021/05/28 02:17:29;;;;;;;0.30;0.13;;;23.70;41.30;;;;;;5067081;28;20143;-60
2021/05/28 02:19:57;;;;;;;0.45;0.45;;;23.60;41.30;;;;;;5067252;28;20418;-60
2021/05/28 02:22:24;;;;;;;0.80;0.10;;;23.60;41.30;;;;;;5067135;28;20143;-60
2021/05/28 02:24:51;;;;;;;0.15;0.15;;;23.60;41.30;;;;;;5066902;28;20131;-60
2021/05/28 02:27:19;;;;;;;0.32;0.20;;;23.60;41.30;;;;;;5066794;28;20075;-60
2021/05/28 02:29:50;;;;;;;0.10;0.10;;;23.60;41.40;;;;;;5065937;28;20055;-60
2021/05/28 02:32:17;;;;;;;0.43;0.17;;;23.60;41.40;;;;;;5067060;28;20136;-60
2021/05/28 02:34:45;;;;;;;0.63;0.35;;;23.60;41.40;;;;;;5075947;28;20497;-60
2021/05/28 02:37:12;;;;;;;0.15;0.10;;;23.60;41.40;;;;;;5086727;28;20083;-60
2021/05/28 02:39:39;;;;;;;0.15;0.15;;;23.60;41.40;;;;;;5086136;28;20131;-60
2021/05/28 02:42:06;;;;;;;0.40;0.15;;;23.60;41.40;;;;;;5086892;28;20130;-60
2021/05/28 02:44:34;;;;;;;0.70;0.15;;;23.60;41.40;;;;;;5087250;28;20048;-60
2021/05/28 02:47:02;;;;;;;0.10;0.00;;;23.60;41.40;;;;;;5086809;28;20075;-60
2021/05/28 02:49:29;;;;;;;0.40;0.20;;;23.60;41.50;;;;;;5087125;28;20102;-60
2021/05/28 02:51:57;;;;;;;0.30;0.30;;;23.60;41.40;;;;;;5086923;28;20044;-60
2021/05/28 02:54:28;;;;;;;0.10;0.10;;;23.60;41.50;;;;;;5086913;28;20079;-60
2021/05/28 02:56:55;;;;;;;0.10;0.10;;;23.60;41.50;;;;;;5081200;28;20044;-60
2021/05/28 02:59:22;;;;;;;0.28;0.10;;;23.60;41.50;;;;;;5066903;28;20558;-60
2021/05/28 03:01:50;;;;;;;0.20;0.20;;;23.60;41.50;;;;;;5066866;28;20135;-60
2021/05/28 03:04:18;;;;;;;0.10;0.10;;;23.60;41.50;;;;;;5066657;28;20083;-60
2021/05/28 03:06:45;;;;;;;0.20;0.20;;;23.60;41.50;;;;;;5066098;28;20098;-60
2021/05/28 03:09:12;;;;;;;0.10;0.10;;;23.50;41.50;;;;;;5076013;28;20036;-60
2021/05/28 03:11:39;;;;;;;0.13;0.13;;;23.60;41.50;;;;;;5086109;28;20128;-60
2021/05/28 03:14:06;;;;;;;0.20;0.20;;;23.60;41.50;;;;;;5087018;28;20440;-60
2021/05/28 03:16:34;;;;;;;1.10;0.30;;;23.50;41.50;;;;;;5086084;28;20556;-60
2021/05/28 03:19:04;;;;;;;0.35;0.17;;;23.60;41.60;;;;;;5087070;28;20044;-60
2021/05/28 03:21:39;;;;;;;0.77;0.20;;;23.50;41.50;;;;;;5086288;28;20074;-60
2021/05/28 03:24:07;;;;;;;0.10;0.10;;;23.50;41.50;;;;;;5086780;28;20076;-60
2021/05/28 03:26:34;;;;;;;0.10;0.10;;;23.50;41.60;;;;;;5089686;28;20056;-60
2021/05/28 03:29:02;;;;;;;0.45;0.10;;;23.50;41.50;;;;;;5090722;28;20084;-60
2021/05/28 03:31:29;;;;;;;0.10;0.10;;;23.60;41.50;;;;;;5089550;28;20072;-60
2021/05/28 03:33:56;;;;;;;0.28;0.15;;;23.60;41.50;;;;;;5089932;28;20080;-60
2021/05/28 03:36:23;;;;;;;0.20;0.20;;;23.50;41.50;;;;;;5089632;28;20134;-60
2021/05/28 03:38:50;;;;;;;0.22;0.15;;;23.50;41.50;;;;;;5089921;28;20048;-60
2021/05/28 03:41:17;;;;;;;0.20;0.13;;;23.50;41.50;;;;;;5090120;28;20051;-60
2021/05/28 03:43:45;;;;;;;0.20;0.20;;;23.50;41.50;;;;;;5090277;28;20095;-60
2021/05/28 03:46:12;;;;;;;0.15;0.15;;;23.50;41.50;;;;;;5089460;28;20044;-60
2021/05/28 03:48:39;;;;;;;0.30;0.10;;;23.50;41.50;;;;;;5088409;28;20048;-60
2021/05/28 03:51:06;;;;;;;0.35;0.20;;;23.50;41.50;;;;;;5089386;28;20043;-60
2021/05/28 03:53:33;;;;;;;0.20;0.20;;;23.60;41.60;;;;;;5089715;28;20087;-60
2021/05/28 03:56:01;;;;;;;0.63;0.40;;;23.50;41.50;;;;;;5089265;28;20093;-60
2021/05/28 03:58:28;;;;;;;0.10;0.10;;;23.50;41.60;;;;;;5089279;28;20131;-60
2021/05/28 04:00:55;;;;;;;0.22;0.20;;;23.50;41.60;;;;;;5089308;28;20086;-60
2021/05/28 04:03:23;;;;;;;0.30;0.10;;;23.50;41.50;;;;;;5089544;28;20066;-60
2021/05/28 04:05:50;;;;;;;0.10;0.10;;;23.60;41.60;;;;;;5089206;28;20064;-60
2021/05/28 04:08:18;;;;;;;0.10;0.10;;;23.50;41.50;;;;;;5089198;28;20080;-60
2021/05/28 04:10:47;;;;;;;0.85;0.20;;;23.60;41.60;;;;;;5089896;28;20127;-59
2021/05/28 04:13:14;;;;;;;0.22;0.20;;;23.50;41.50;;;;;;5089314;28;20048;-59
2021/05/28 04:15:41;;;;;;;0.20;0.10;;;23.60;41.60;;;;;;5089370;28;20098;-59
2021/05/28 04:18:09;;;;;;;0.20;0.20;;;23.60;41.50;;;;;;5089527;28;20117;-59
2021/05/28 04:20:37;;;;;;;0.10;0.10;;;23.60;41.50;;;;;;5089341;28;20142;-60
2021/05/28 04:23:04;;;;;;;0.20;0.20;;;23.60;41.50;;;;;;5089286;28;20733;-59
2021/05/28 04:25:31;;;;;;;1.35;0.10;;;23.60;41.50;;;;;;5089504;28;20055;-59
2021/05/28 04:27:58;;;;;;;0.20;0.20;;;23.60;41.40;;;;;;5088364;28;20078;-59
2021/05/28 04:30:25;;;;;;;1.35;0.30;;;23.70;41.40;;;;;;5088503;28;20541;-59
2021/05/28 04:32:54;;;;;;;0.20;0.20;;;23.70;41.40;;;;;;5085422;28;20556;-60
2021/05/28 04:35:21;;;;;;;0.10;0.10;;;23.70;41.30;;;;;;5088655;28;20562;-59
2021/05/28 04:37:51;;;;;;;0.25;0.10;;;23.80;41.30;;;;;;5088021;28;20054;-60
2021/05/28 04:40:19;;;;;;;0.57;0.20;;;23.80;41.30;;;;;;5088782;28;20044;-59
2021/05/28 04:42:46;;;;;;;0.22;0.13;;;23.80;41.20;;;;;;5088513;28;20101;-60
2021/05/28 04:45:14;;;;;;;0.10;0.10;;;23.80;41.10;;;;;;5088686;28;20067;-60
2021/05/28 04:47:41;;;;;;;0.10;0.10;;;23.90;41.10;;;;;;5088075;28;20071;-59
2021/05/28 04:50:08;;;;;;;1.08;0.38;;;23.90;41.00;;;;;;5089264;28;20127;-59
2021/05/28 04:52:36;;;;;;;0.20;0.10;;;23.90;41.00;;;;;;5087009;28;20420;-60
2021/05/28 04:55:04;;;;;;;0.15;0.10;;;24.00;40.90;;;;;;5088061;28;20504;-60
2021/05/28 04:57:31;;;;;;;0.20;0.20;;;24.00;40.80;;;;;;5087371;28;20436;-60
2021/05/28 04:59:59;;;;;;;0.30;0.30;;;24.10;40.80;;;;;;5088182;28;20050;-60
2021/05/28 05:02:26;;;;;;;0.20;0.20;;;24.10;40.70;;;;;;5087939;28;20046;-59
2021/05/28 05:04:53;;;;;;;0.15;0.10;;;24.10;40.60;;;;;;5077786;28;20154;-60
2021/05/28 05:07:20;;;;;;;0.40;0.30;;;24.10;40.60;;;;;;5068140;28;20052;-59
2021/05/28 05:09:47;;;;;;;0.20;0.10;;;24.20;40.40;;;;;;5067751;28;20044;-59
2021/05/28 05:12:14;;;;;;;0.30;0.30;;;24.20;40.30;;;;;;5067780;28;20052;-60
2021/05/28 05:14:41;;;;;;;0.10;0.10;;;24.20;40.20;;;;;;5077440;28;20127;-60
2021/05/28 05:17:08;;;;;;;0.85;0.10;;;24.30;40.10;;;;;;5087512;28;20122;-59
2021/05/28 05:19:36;;;;;;;0.10;0.10;;;24.30;40.00;;;;;;5086836;28;20516;-59
2021/05/28 05:22:03;;;;;;;0.20;0.20;;;24.40;40.00;;;;;;5079891;28;20037;-60
2021/05/28 05:24:30;;;;;;;2.92;0.22;;;24.40;40.00;;;;;;5083927;28;20071;-59
2021/05/28 05:26:58;;;;;;;0.77;0.20;;;24.40;39.90;;;;;;5079000;28;20068;-59
2021/05/28 05:29:25;;;;;;;0.20;0.20;;;24.40;40.00;;;;;;5086050;28;20044;-59
2021/05/28 05:31:53;;;;;;;0.30;0.30;;;24.50;39.90;;;;;;5085401;28;20054;-59
2021/05/28 05:34:20;;;;;;;2.08;0.20;;;24.50;39.90;;;;;;5083178;28;20086;-60
2021/05/28 05:36:48;;;;;;;0.10;0.10;;;24.50;39.90;;;;;;5077910;28;20044;-60
2021/05/28 05:39:15;;;;;;;1.85;0.10;;;24.50;39.80;;;;;;5080291;28;20052;-60
2021/05/28 05:41:43;;;;;;;0.15;0.13;;;24.50;39.80;;;;;;5081527;28;20071;-60
2021/05/28 05:44:10;;;;;;;0.20;0.20;;;24.50;39.70;;;;;;5082786;28;20086;-59
2021/05/28 05:46:39;;;;;;;0.30;0.10;;;24.50;39.70;;;;;;5079492;28;20405;-60
2021/05/28 05:49:06;;;;;;;0.20;0.10;;;24.50;39.60;;;;;;5072200;28;20449;-59
2021/05/28 05:51:33;;;;;;;0.22;0.22;;;24.50;39.60;;;;;;5077418;28;20052;-59
2021/05/28 05:54:01;;;;;;;0.77;0.10;;;24.60;39.60;;;;;;5080870;28;20072;-59
2021/05/28 05:56:28;;;;;;;0.20;0.20;;;24.60;39.50;;;;;;5078050;28;20151;-59
2021/05/28 05:58:55;;;;;;;0.20;0.20;;;24.60;39.50;;;;;;5080523;28;20109;-59
2021/05/28 06:01:23;;;;;;;0.20;0.20;;;24.60;39.40;;;;;;5070850;28;20131;-60
2021/05/28 06:03:51;;;;;;;0.30;0.20;;;24.70;39.30;;;;;;5067597;28;20544;-59
2021/05/28 06:06:18;;;;;;;2.08;0.20;;;24.70;39.30;;;;;;5080369;28;20516;-61
2021/05/28 06:08:46;;;;;;;1.08;0.40;;;24.70;39.30;;;;;;5083726;28;20046;-61
2021/05/28 06:11:13;;;;;;;0.40;0.28;;;24.70;39.30;;;;;;5078342;28;20076;-59
2021/05/28 06:13:40;;;;;;;2.20;0.30;;;24.70;39.20;;;;;;5075875;28;20067;-61
2021/05/28 06:16:07;;;;;;;1.23;0.40;;;24.70;39.30;;;;;;5078894;28;20610;-59
2021/05/28 06:18:35;;;;;;;1.25;0.28;;;24.80;39.20;;;;;;5078130;28;20071;-60
2021/05/28 06:21:03;;;;;;;0.35;0.20;;;24.90;39.20;;;;;;5076197;28;20423;-60
2021/05/28 06:23:30;;;;;;;0.45;0.40;;;24.90;38.90;;;;;;5081703;28;20097;-60
2021/05/28 06:25:57;;;;;;;0.52;0.40;;;24.90;38.80;;;;;;5073400;28;20170;-62
2021/05/28 06:28:25;;;;;;;0.75;0.30;;;24.90;38.70;;;;;;5074523;28;20062;-58
2021/05/28 06:30:54;;;;;;;0.60;0.38;;;24.90;38.60;;;;;;5076805;28;20070;-61
2021/05/28 06:33:21;;;;;;;0.70;0.45;;;25.00;38.50;;;;;;5074918;28;20044;-58
2021/05/28 06:35:48;;;;;;;8.82;0.30;;;25.00;38.40;;;;;;5078700;28;20044;-63
2021/05/28 06:38:16;;;;;;;0.50;0.30;;;25.00;38.30;;;;;;5079982;28;20060;-60
2021/05/28 06:40:43;;;;;;;0.43;0.40;;;25.10;38.40;;;;;;5076617;28;21360;-65
2021/05/28 06:43:10;;;;;;;0.73;0.40;;;25.10;38.30;;;;;;5078442;28;20048;-61
2021/05/28 06:45:39;;;;;;;2.28;0.45;;;25.10;38.10;;;;;;5071496;28;20078;-58
2021/05/28 06:48:08;;;;;;;1.05;0.52;;;25.10;37.80;;;;;;5078136;28;20058;-58
2021/05/28 06:50:40;;;;;;;3.95;0.32;;;25.10;37.60;;;;;;5080562;28;20074;-62
2021/05/28 06:53:08;;;;;;;0.57;0.40;;;25.20;37.60;;;;;;5074823;28;20051;-61
2021/05/28 06:55:36;;;;;;;0.82;0.50;;;25.20;37.40;;;;;;5075591;28;20129;-62
2021/05/28 06:58:03;;;;;;;3.58;0.88;;;25.20;37.40;;;;;;5073846;28;20547;-62
2021/05/28 07:00:31;;;;;;;2.15;1.30;;;25.20;37.30;;;;;;5081678;28;20127;-63
2021/05/28 07:02:58;;;;;;;4.82;1.13;;;25.30;37.20;;;;;;5083356;28;20249;-61
2021/05/28 07:05:27;;;;;;;2.47;0.73;;;25.20;36.90;;;;;;5078670;28;20179;-61
2021/05/28 07:07:56;;;;;;;1.53;0.67;;;25.20;35.70;;;;;;5082543;28;20051;-61
2021/05/28 07:10:23;;;;;;;3.90;1.53;;;25.10;34.40;;;;;;5078401;28;20053;-58
2021/05/28 07:12:51;;;;;;;3.05;0.57;;;25.00;34.70;;;;;;5076588;28;20748;-58
2021/05/28 07:15:18;;;;;;;0.60;0.60;;;24.90;35.30;;;;;;5077828;28;20076;-59
2021/05/28 07:17:46;;;;;;;0.75;0.40;;;24.80;35.70;;;;;;5078338;28;20052;-61
2021/05/28 07:20:15;;;;;;;0.45;0.40;;;24.80;36.00;;;;;;5079457;28;20499;-59
2021/05/28 07:22:42;;;;;;;0.70;0.40;;;24.80;36.20;;;;;;5077421;28;20509;-61
2021/05/28 07:25:11;;;;;;;3.97;0.60;;;24.90;36.30;;;;;;5073381;28;20195;-61
2021/05/28 07:27:38;;;;;;;2.85;0.80;;;24.90;36.40;;;;;;5080826;28;20539;-60
2021/05/28 07:30:08;;;;;;;0.52;0.40;;;24.90;37.00;;;;;;5081725;28;20851;-60
2021/05/28 07:32:37;;;;;;;18.47;1.47;;;24.90;36.50;;;;;;5076163;28;20094;-61
2021/05/28 07:35:05;;;;;;;1.27;0.40;;;25.00;36.40;;;;;;5083358;28;20280;-61
2021/05/28 07:37:33;;;;;;;1.38;0.40;;;25.10;36.30;;;;;;5072929;28;20099;-60
2021/05/28 07:40:00;;;;;;;2.75;0.55;;;25.10;36.30;;;;;;5079016;28;20123;-64
2021/05/28 07:42:28;;;;;;;1.65;0.30;;;25.10;36.10;;;;;;5076397;28;20480;-61
2021/05/28 07:44:55;;;;;;;0.75;0.28;;;25.20;36.10;;;;;;5077856;28;20082;-58
2021/05/28 07:47:22;;;;;;;0.25;0.22;;;25.20;36.10;;;;;;5075843;28;20132;-59
2021/05/28 07:49:49;;;;;;;0.82;0.35;;;25.20;36.10;;;;;;5080679;28;20049;-59
2021/05/28 07:52:17;;;;;;;1.23;0.50;;;25.30;36.20;;;;;;5079995;28;20151;-59
2021/05/28 07:54:45;;;;;;;4.47;0.43;;;25.20;36.10;;;;;;5082904;28;20086;-63
2021/05/28 07:57:12;;;;;;;1.30;0.52;;;25.30;36.10;;;;;;5076345;28;20054;-62
2021/05/28 07:59:39;;;;;;;5.45;0.40;;;25.30;36.20;;;;;;5083118;28;20055;-61
2021/05/28 08:02:08;;;;;;;0.40;0.30;;;25.40;36.10;;;;;;5084628;28;20044;-62
2021/05/28 08:04:35;;;;;;;1.65;0.40;;;25.30;36.00;;;;;;5080881;28;20193;-61
2021/05/28 08:07:03;;;;;;;0.75;0.50;;;25.40;36.10;;;;;;5081950;28;20079;-62
2021/05/28 08:09:30;;;;;;;0.50;0.47;;;25.40;36.00;;;;;;5080347;28;20063;-61
2021/05/28 08:11:57;;;;;;;0.50;0.50;;;25.40;36.00;;;;;;5076898;28;20079;-61
2021/05/28 08:14:25;;;;;;;0.68;0.30;;;25.40;36.00;;;;;;5084105;28;20102;-62
2021/05/28 08:16:52;;;;;;;0.43;0.28;;;25.40;35.90;;;;;;5076908;28;20056;-62
2021/05/28 08:19:19;;;;;;;0.40;0.22;;;25.40;35.90;;;;;;5084338;28;20559;-63
2021/05/28 08:21:46;;;;;;;1.40;0.57;;;25.40;35.90;;;;;;5083279;28;20146;-61
2021/05/28 08:24:13;;;;;;;0.90;0.30;;;25.40;35.80;;;;;;5084696;28;20138;-62
2021/05/28 08:26:41;;;;;;;0.50;0.28;;;25.50;35.90;;;;;;5075997;28;20464;-62
2021/05/28 08:29:08;;;;;;;0.95;0.25;;;25.50;35.90;;;;;;5081660;28;20437;-62
2021/05/28 08:31:36;;;;;;;0.43;0.43;;;25.50;35.90;;;;;;5083077;28;20146;-61
2021/05/28 08:34:03;;;;;;;0.73;0.30;;;25.50;36.00;;;;;;5083684;28;20066;-61
2021/05/28 08:36:30;;;;;;;1.52;0.30;;;25.50;36.00;;;;;;5079702;28;20130;-62
2021/05/28 08:38:57;;;;;;;0.45;0.28;;;25.60;35.90;;;;;;5075086;28;20083;-62
2021/05/28 08:41:26;;;;;;;0.25;0.25;;;25.60;35.90;;;;;;5077493;28;20067;-62
2021/05/28 08:43:54;;;;;;;1.10;0.60;;;25.70;36.00;;;;;;5081609;28;20094;-62
2021/05/28 08:46:21;;;;;;;0.50;0.40;;;25.60;35.90;;;;;;5079040;28;20056;-61
2021/05/28 08:48:52;;;;;;;2.05;0.40;;;25.70;36.00;;;;;;5084302;28;20048;-62
2021/05/28 08:51:20;;;;;;;0.70;0.50;;;25.70;36.00;;;;;;5082874;28;20135;-62
2021/05/28 08:53:47;;;;;;;0.55;0.30;;;25.80;36.00;;;;;;5081806;28;20055;-63
2021/05/28 08:56:15;;;;;;;1.80;0.40;;;25.80;35.90;;;;;;5083985;28;20105;-62
2021/05/28 08:58:42;;;;;;;0.32;0.30;;;25.90;35.80;;;;;;5081505;28;20147;-62
2021/05/28 09:01:09;;;;;;;0.30;0.17;;;25.90;35.90;;;;;;5080584;28;20136;-61
2021/05/28 09:03:38;;;;;;;1.35;0.40;;;25.90;35.70;;;;;;5079946;28;20702;-62
2021/05/28 09:06:19;;;;;;;0.55;0.32;;;26.00;35.70;;;;;;5081784;28;20083;-63
2021/05/28 09:08:46;;;;;;;0.28;0.28;;;26.00;35.70;;;;;;5082108;28;20520;-62
2021/05/28 09:11:17;;;;;;;2.72;0.75;;;26.00;35.70;;;;;;5081240;28;20528;-66
2021/05/28 09:13:56;;;;;;;0.65;0.20;;;26.00;35.50;;;;;;5084395;28;20060;-63
2021/05/28 09:16:27;;;;;;;0.40;0.35;;;26.00;35.70;;;;;;5081633;28;20106;-62
2021/05/28 09:18:59;;;;;;;0.50;0.28;;;26.00;35.60;;;;;;5078270;28;20058;-63
2021/05/28 09:21:35;;;;;;;0.32;0.25;;;26.00;35.60;;;;;;5083249;28;20075;-60
2021/05/28 09:24:06;;;;;;;5.68;0.30;;;26.00;35.60;;;;;;5078161;28;20523;-59
2021/05/28 09:26:35;;;;;;;0.82;0.32;;;26.00;35.80;;;;;;5083040;28;20071;-62
2021/05/28 09:29:05;;;;;;;2.55;0.47;;;26.00;35.70;;;;;;5076998;28;20047;-61
2021/05/28 09:31:34;;;;;;;2.10;0.50;;;26.00;35.50;;;;;;5076628;28;20072;-64
2021/05/28 09:34:03;;;;;;;0.50;0.25;;;26.10;35.70;;;;;;5078480;28;20063;-62
2021/05/28 09:36:33;;;;;;;0.60;0.20;;;26.10;35.40;;;;;;5065450;28;20206;-63
2021/05/28 09:39:06;;;;;;;0.30;0.30;;;26.10;35.40;;;;;;5080180;28;20134;-65
2021/05/28 09:41:49;;;;;;;0.57;0.50;;;26.10;36.00;;;;;;5085325;28;20131;-62
2021/05/28 09:44:22;;;;;;;1.30;0.20;;;26.10;35.80;;;;;;5082095;28;20040;-61
2021/05/28 09:47:17;;;;;;;0.63;0.50;;;26.20;35.20;;;;;;5078645;28;20044;-63
2021/05/28 09:49:49;;;;;;;0.30;0.30;;;26.20;35.20;;;;;;5084242;28;20515;-61
2021/05/28 09:52:24;;;;;;;1.77;0.43;;;26.20;35.20;;;;;;5081187;28;20483;-61
2021/05/28 09:54:57;;;;;;;0.85;0.50;;;26.20;35.20;;;;;;5081959;28;20075;-61
2021/05/28 09:57:39;;;;;;;3.78;0.22;;;26.20;35.10;;;;;;5081033;28;20437;-62
2021/05/28 10:00:21;;;;;;;2.38;0.10;;;26.20;34.90;;;;;;5082089;28;20090;-61
2021/05/28 10:03:22;;;;;;;0.30;0.20;;;26.20;35.10;;;;;;5077462;28;20040;-62
2021/05/28 10:05:51;;;;;;;0.17;0.10;;;26.10;35.10;;;;;;5080158;28;20044;-63
2021/05/28 10:08:21;;;;;;;0.50;0.50;;;26.10;35.10;;;;;;5079414;28;20131;-63
2021/05/28 10:10:50;;;;;;;0.05;0.05;;;26.10;35.10;;;;;;5081681;28;20094;-61
2021/05/28 10:13:21;;;;;;;0.10;0.10;;;26.20;35.10;;;;;;5075665;28;20105;-61
2021/05/28 10:15:51;;;;;;;0.10;0.10;;;26.20;35.10;;;;;;5076979;28;20060;-61
2021/05/28 10:18:20;;;;;;;0.20;0.15;;;26.20;35.00;;;;;;5080316;28;20048;-62
2021/05/28 10:20:49;;;;;;;0.30;0.30;;;26.20;35.00;;;;;;5080669;28;20222;-62
2021/05/28 10:23:17;;;;;;;0.80;0.20;;;26.20;35.00;;;;;;5080159;28;20131;-62
2021/05/28 10:25:45;;;;;;;0.20;0.20;;;26.20;35.00;;;;;;5078410;28;20040;-63
2021/05/28 10:28:19;;;;;;;1.38;0.20;;;26.20;35.00;;;;;;5078577;28;20055;-62
2021/05/28 10:30:49;;;;;;;0.77;0.15;;;26.30;34.10;;;;;;5076661;28;20040;-64
2021/05/28 10:33:22;;;;;;;0.20;0.20;;;26.20;34.50;;;;;;5078873;28;20044;-63
2021/05/28 10:35:52;;;;;;;1.38;0.30;;;26.20;34.90;;;;;;5077402;28;20086;-60
2021/05/28 10:38:35;;;;;;;;;;;26.30;35.10;;;;;;5082074;28;20072;-61
2021/05/28 10:41:30;;;;;;;1.73;0.20;;;26.30;35.00;;;;;;5081224;28;20028;-62
2021/05/28 10:44:01;;;;;;;0.40;0.20;;;26.30;35.10;;;;;;5083027;28;20071;-62
2021/05/28 10:46:29;;;;;;;2.05;0.20;;;26.40;34.70;;;;;;5082062;28;20040;-62
2021/05/28 10:49:09;;;;;;;0.95;0.50;;;26.40;34.70;;;;;;5082717;28;20052;-60
2021/05/28 10:51:58;;;;;;;0.77;0.32;;;26.40;34.70;;;;;;5085639;28;20056;-62
2021/05/28 10:54:26;;;;;;;2.10;0.20;;;26.40;34.50;;;;;;5083910;28;20079;-62
2021/05/28 10:56:53;;;;;;;0.85;0.40;;;26.50;34.60;;;;;;5072468;28;20051;-61
2021/05/28 10:59:22;;;;;;;0.35;0.32;;;26.50;34.50;;;;;;5083126;28;20052;-59
2021/05/28 11:01:58;;;;;;;0.13;0.13;;;26.50;34.40;;;;;;5081561;28;20147;-60
2021/05/28 11:04:56;;;;;;;0.20;0.20;;;26.60;34.50;;;;;;5082129;28;20562;-61
2021/05/28 11:07:32;;;;;;;0.68;0.20;;;26.60;34.60;;;;;;5080642;28;20044;-61
2021/05/28 11:10:15;;;;;;;0.20;0.20;;;26.60;34.50;;;;;;5083803;28;20143;-60
2021/05/28 11:12:42;;;;;;;0.20;0.20;;;26.70;34.30;;;;;;5083050;28;20072;-56
2021/05/28 11:15:14;;;;;;;0.30;0.10;;;26.70;34.50;;;;;;5084617;28;20051;-59
2021/05/28 11:18:04;;;;;;;1.33;0.40;;;26.70;34.50;;;;;;5084466;28;20075;-59
2021/05/28 11:20:38;;;;;;;0.28;0.20;;;26.70;34.30;;;;;;5081012;28;20086;-60
2021/05/28 11:23:15;;;;;;;2.20;0.20;;;26.60;34.20;;;;;;5084012;28;20067;-59
2021/05/28 11:25:51;;;;;;;0.32;0.20;;;26.60;34.40;;;;;;5082250;28;20467;-60
2021/05/28 11:28:19;;;;;;;0.90;0.20;;;26.60;34.30;;;;;;5084342;28;20135;-58
2021/05/28 11:30:54;;;;;;;0.28;0.20;;;26.60;34.20;;;;;;5084760;28;20507;-59
2021/05/28 11:33:41;;;;;;;0.30;0.30;;;26.60;34.30;;;;;;5086739;28;20105;-59
2021/05/28 11:36:40;;;;;;;0.38;0.20;;;26.60;34.30;;;;;;5076337;28;20055;-59
2021/05/28 11:39:19;;;;;;;3.28;0.20;;;26.60;34.20;;;;;;5082659;28;20127;-58
2021/05/28 11:42:01;;;;;;;0.32;0.10;;;26.60;34.20;;;;;;5081106;28;20135;-59
2021/05/28 11:44:34;;;;;;;0.20;0.10;;;26.60;34.30;;;;;;5086229;28;20156;-59
2021/05/28 11:47:02;;;;;;;0.40;0.10;;;26.60;34.30;;;;;;5082599;28;20542;-59
2021/05/28 11:49:30;;;;;;;0.35;0.30;;;26.60;34.20;;;;;;5085341;28;20051;-59
2021/05/28 11:52:05;;;;;;;0.20;0.20;;;26.50;34.10;;;;;;5085528;28;20224;-59
2021/05/28 11:54:35;;;;;;;0.30;0.10;;;26.50;34.10;;;;;;5082257;28;20055;-59
2021/05/28 11:57:05;;;;;;;0.15;0.13;;;26.50;34.10;;;;;;5075760;28;20123;-59
2021/05/28 11:59:51;;;;;;;1.55;0.20;;;26.50;34.20;;;;;;5087301;28;20070;-59
2021/05/28 12:02:52;;;;;;;1.00;0.10;;;26.50;34.20;;;;;;5085884;28;20040;-59
2021/05/28 12:05:23;;;;;;;0.30;0.20;;;26.50;34.10;;;;;;5087916;28;20075;-59
2021/05/28 12:07:52;;;;;;;1.52;0.20;;;26.50;34.00;;;;;;5086298;28;20519;-59
2021/05/28 12:10:20;;;;;;;0.35;0.20;;;26.60;33.80;;;;;;5088321;28;20075;-59
2021/05/28 12:12:58;;;;;;;2.38;0.20;;;26.50;33.60;;;;;;5079907;28;20070;-59
2021/05/28 12:15:34;;;;;;;0.80;0.40;;;26.50;33.50;;;;;;5074877;28;20123;-59
2021/05/28 12:18:27;;;;;;;0.90;0.25;;;26.60;33.30;;;;;;5082608;28;20071;-59
2021/05/28 12:21:13;;;;;;;1.10;0.20;;;26.60;33.20;;;;;;5078598;28;20084;-59
2021/05/28 12:23:45;;;;;;;0.80;0.20;;;26.60;33.10;;;;;;5088266;28;20054;-59
2021/05/28 12:26:15;;;;;;;4.38;0.20;;;26.50;33.00;;;;;;5080896;28;20068;-59
2021/05/28 12:28:52;;;;;;;1.00;0.20;;;26.50;33.00;;;;;;5069011;28;20139;-59
2021/05/28 12:31:21;;;;;;;0.10;0.10;;;26.50;33.00;;;;;;5067923;28;20129;-59
2021/05/28 12:33:54;;;;;;;1.87;0.67;;;26.50;33.10;;;;;;5076063;28;20051;-59
2021/05/28 12:36:34;;;;;;;0.40;0.40;;;26.50;33.20;;;;;;5070198;28;20107;-59
2021/05/28 12:39:08;;;;;;;1.98;0.63;;;26.50;33.30;;;;;;5087166;28;20536;-59
2021/05/28 12:41:36;;;;;;;2.72;0.20;;;26.50;33.40;;;;;;5088821;28;20125;-59
2021/05/28 12:44:06;;;;;;;0.30;0.20;;;26.50;33.50;;;;;;5089148;28;20479;-59
2021/05/28 12:46:36;;;;;;;1.25;0.50;;;26.50;33.40;;;;;;5087938;28;20066;-59
2021/05/28 12:49:12;;;;;;;0.60;0.20;;;26.50;33.50;;;;;;5088428;28;20477;-59
2021/05/28 12:51:45;;;;;;;0.10;0.10;;;26.50;33.50;;;;;;5088310;28;20127;-59
2021/05/28 12:54:25;;;;;;;0.43;0.20;;;26.40;33.70;;;;;;5088670;28;20047;-59
2021/05/28 12:56:53;;;;;;;;;;;26.50;33.90;;;;;;5082389;28;20044;-59
2021/05/28 12:59:32;;;;;;;0.50;0.10;;;26.40;33.80;;;;;;5087066;28;19934;-60
2021/05/28 13:02:12;;;;;;;0.68;0.15;;;26.40;34.00;;;;;;5086392;28;20288;-60